Gambo, Canada
Current Conditions -  °F | °C
As of 7:00 AM on Monday 26 Jan 2015 (Local Time) from CYQX Reporting Station
Blowing Snow Blowing Snow  
Wind Chill:   Ceiling: Unl
Heat Index: 19°   Visibility: 15mi
Dew Point:   Wind: 23mph
Humidity: 63%   Direction: 230°SW
Pressure: 29.44"   Gusts: 33mph
Location:  48.79°N, 54.21°W
Report Text: CYQX 261000Z 23020G29KT 15SM DRSN FEW025 FEW042 M07/M13 A2944 RMK SC1SC1 SLP977
Loading
Personal Weather Stations






























Interactive Weather Map New forecast layout! Learn more

10-Day Weather Forecast

Advertisements
Track Severe Weather on mobile